Time;durP1;ratioP1;P1;durP2;ratioP2;P2;SDS_P1;SDS_P2;PMS_P1;PMS_P2;Temp;Humidity;BMP_temperature;BMP_pressure;BME280_temperature;BME280_humidity;BME280_pressure;Samples;Min_cycle;Max_cycle;Signal;HPM_P1;HPM_P2
2021/12/29 00:01:54;;;;;;;11.13;8.83;;;1.90;99.90;1.70;95553.00;;;;5040583;28;20447;-74
2021/12/29 00:04:43;;;;;;;11.60;8.20;;;2.00;99.90;1.80;95554.00;;;;5034539;28;20451;-74
2021/12/29 00:07:32;;;;;;;10.20;8.10;;;1.90;99.90;1.70;95540.00;;;;5042118;28;20432;-74
2021/12/29 00:10:22;;;;;;;11.73;7.33;;;1.90;99.90;1.60;95548.00;;;;5041750;28;20431;-75
2021/12/29 00:13:12;;;;;;;10.93;7.57;;;1.80;99.90;1.50;95538.00;;;;5039577;28;20951;-75
2021/12/29 00:16:02;;;;;;;13.00;7.93;;;1.80;99.90;1.40;95526.00;;;;5040522;28;20446;-76
2021/12/29 00:18:51;;;;;;;13.30;7.37;;;1.70;99.90;1.30;95529.00;;;;5043974;28;20470;-75
2021/12/29 00:21:39;;;;;;;10.40;7.70;;;1.70;99.90;1.30;95528.00;;;;5043188;28;20946;-75
2021/12/29 00:24:28;;;;;;;12.63;7.73;;;1.60;99.90;1.00;95525.00;;;;5037373;28;20427;-76
2021/12/29 00:27:17;;;;;;;15.10;8.37;;;1.60;99.90;1.10;95531.00;;;;5044658;28;20616;-73
2021/12/29 00:30:12;;;;;;;10.47;7.80;;;1.60;99.90;1.10;95529.00;;;;5037493;28;20430;-73
2021/12/29 00:33:02;;;;;;;12.17;8.70;;;1.60;99.90;1.10;95528.00;;;;5042839;28;20435;-75
2021/12/29 00:35:51;;;;;;;10.20;7.40;;;1.60;99.90;1.30;95528.00;;;;5047344;28;20419;-75
2021/12/29 00:38:40;;;;;;;11.13;8.03;;;1.60;99.90;1.30;95536.00;;;;5044160;28;20473;-74
2021/12/29 00:41:29;;;;;;;10.37;8.07;;;1.60;99.90;1.30;95544.00;;;;5044247;28;20470;-75
2021/12/29 00:44:17;;;;;;;12.00;7.83;;;1.60;99.90;1.40;95539.00;;;;5044178;28;20435;-74
2021/12/29 00:47:08;;;;;;;11.70;8.13;;;1.60;99.90;1.40;95543.00;;;;5045214;28;20435;-75
2021/12/29 00:49:58;;;;;;;12.83;8.50;;;1.60;99.90;1.40;95549.00;;;;5039444;28;20439;-75
2021/12/29 00:52:48;;;;;;;13.47;8.77;;;0.90;99.90;1.50;95544.00;;;;5030013;28;21205;-75
2021/12/29 00:55:38;;;;;;;11.47;7.90;;;1.60;99.90;1.30;95537.00;;;;5024312;28;20812;-76
2021/12/29 00:58:29;;;;;;;11.97;9.13;;;1.60;99.90;1.40;95543.00;;;;5026498;28;20982;-76
2021/12/29 01:01:18;;;;;;;11.77;8.53;;;1.60;99.90;1.40;95550.00;;;;5033033;28;20847;-74
2021/12/29 01:04:09;;;;;;;7.53;6.70;;;1.60;99.90;1.50;95540.00;;;;5044966;28;20821;-75
2021/12/29 01:06:57;;;;;;;11.77;8.73;;;1.60;99.90;1.60;95540.00;;;;5044225;28;20469;-75
2021/12/29 01:09:46;;;;;;;9.37;8.40;;;1.50;99.90;1.60;95538.00;;;;5043722;28;20431;-75
2021/12/29 01:12:35;;;;;;;12.87;8.90;;;1.60;99.90;1.50;95554.00;;;;5039346;28;20458;-75
2021/12/29 01:15:33;;;;;;;10.27;8.27;;;1.60;99.90;1.60;95558.00;;;;5043591;28;20942;-75
2021/12/29 01:18:22;;;;;;;10.93;7.67;;;1.60;99.90;1.60;95558.00;;;;5043904;28;20871;-76
2021/12/29 01:21:12;;;;;;;10.83;7.83;;;1.70;99.90;1.70;95559.00;;;;5043066;28;20805;-74
2021/12/29 01:24:02;;;;;;;11.33;8.50;;;1.70;99.90;1.50;95556.00;;;;5034871;28;20787;-74
2021/12/29 01:26:51;;;;;;;9.43;7.30;;;1.70;99.90;1.50;95556.00;;;;5044246;28;20430;-75
2021/12/29 01:29:40;;;;;;;8.90;6.63;;;1.70;99.90;1.40;95555.00;;;;5042504;28;20526;-76
2021/12/29 01:32:29;;;;;;;10.07;7.53;;;1.70;99.90;1.50;95554.00;;;;5044327;28;20436;-75
2021/12/29 01:35:18;;;;;;;10.00;8.20;;;1.60;99.90;1.60;95563.00;;;;5040089;28;21097;-75
2021/12/29 01:38:10;;;;;;;10.97;8.67;;;1.70;99.90;1.70;95556.00;;;;5042116;28;20471;-73
2021/12/29 01:40:59;;;;;;;10.53;7.77;;;1.70;99.90;1.60;95564.00;;;;5042834;28;20991;-73
2021/12/29 01:43:48;;;;;;;7.83;6.90;;;1.70;99.90;1.60;95560.00;;;;5043672;28;20441;-73
2021/12/29 01:46:38;;;;;;;11.37;8.73;;;1.70;99.90;1.70;95551.00;;;;5035379;28;20427;-74
2021/12/29 01:49:27;;;;;;;10.47;8.47;;;1.70;99.90;1.70;95559.00;;;;5034669;28;20932;-72
2021/12/29 01:52:21;;;;;;;11.33;8.43;;;1.70;99.90;1.70;95540.00;;;;5032409;28;20463;-75
2021/12/29 01:55:15;;;;;;;10.80;7.90;;;1.80;99.90;1.80;95551.00;;;;5041799;28;20423;-74
2021/12/29 01:58:05;;;;;;;7.03;5.20;;;1.80;99.90;1.80;95555.00;;;;5044571;28;20434;-75
2021/12/29 02:00:57;;;;;;;10.83;7.80;;;1.80;99.90;1.70;95556.00;;;;5039243;28;20955;-74
2021/12/29 02:03:47;;;;;;;9.47;8.00;;;1.80;99.90;1.40;95552.00;;;;5041660;28;20428;-75
2021/12/29 02:06:36;;;;;;;12.17;9.20;;;1.80;99.90;1.50;95558.00;;;;5042660;28;20645;-72
2021/12/29 02:09:25;;;;;;;8.43;7.37;;;1.70;99.90;1.70;95559.00;;;;5043327;28;20450;-74
2021/12/29 02:12:17;;;;;;;12.00;7.63;;;1.80;99.90;1.60;95556.00;;;;5036140;28;20988;-76
2021/12/29 02:15:09;;;;;;;10.13;8.40;;;1.80;99.90;1.60;95561.00;;;;5042764;28;20945;-75
2021/12/29 02:17:58;;;;;;;12.17;9.13;;;1.80;99.90;1.70;95570.00;;;;5043583;28;20432;-74
2021/12/29 02:20:53;;;;;;;11.70;7.97;;;1.80;99.90;1.80;95559.00;;;;5041050;28;20950;-76
2021/12/29 02:23:56;;;;;;;8.30;6.63;;;1.80;99.90;1.80;95570.00;;;;5042610;28;20804;-76
2021/12/29 02:26:47;;;;;;;11.17;7.83;;;1.80;99.90;1.70;95573.00;;;;5042148;28;20423;-76
2021/12/29 02:29:36;;;;;;;20.27;10.70;;;1.80;99.90;1.70;95578.00;;;;5041966;28;20420;-75
2021/12/29 02:32:25;;;;;;;14.70;8.43;;;1.80;99.90;1.70;95572.00;;;;5042796;28;20957;-75
2021/12/29 02:35:15;;;;;;;15.97;8.80;;;1.80;99.90;1.70;95582.00;;;;5041604;28;20451;-73
2021/12/29 02:38:09;;;;;;;11.13;9.00;;;1.80;99.90;1.80;95592.00;;;;5043518;28;20435;-75
2021/12/29 02:41:01;;;;;;;11.60;8.07;;;1.80;99.90;1.80;95578.00;;;;5043173;28;20474;-75
2021/12/29 02:43:58;;;;;;;15.83;9.23;;;1.90;99.90;1.80;95581.00;;;;5042592;28;20811;-75
2021/12/29 02:46:47;;;;;;;16.30;9.27;;;1.80;99.90;1.80;95585.00;;;;5043657;28;20423;-74
2021/12/29 02:49:37;;;;;;;13.53;9.27;;;1.80;99.90;1.70;95559.00;;;;5033990;28;20451;-75
2021/12/29 02:52:26;;;;;;;18.80;8.17;;;1.80;99.90;1.70;95599.00;;;;5045461;28;20443;-75
2021/12/29 02:55:17;;;;;;;11.00;8.50;;;1.80;99.90;1.60;95588.00;;;;5046156;28;20446;-74
2021/12/29 02:58:05;;;;;;;11.83;8.93;;;1.80;99.90;1.70;95570.00;;;;5046361;28;20438;-75
2021/12/29 03:00:57;;;;;;;14.70;9.90;;;1.90;99.90;1.80;95600.00;;;;5042242;28;20447;-76
2021/12/29 03:03:46;;;;;;;12.07;8.50;;;1.80;99.90;1.90;95592.00;;;;5037225;28;20585;-75
2021/12/29 03:06:36;;;;;;;15.27;8.87;;;1.80;99.90;1.90;95590.00;;;;5033480;28;20950;-75
2021/12/29 03:09:25;;;;;;;15.30;9.13;;;1.90;99.90;1.90;95597.00;;;;5038252;28;20437;-75
2021/12/29 03:12:15;;;;;;;13.50;10.00;;;1.90;99.90;1.70;95600.00;;;;5036722;28;20862;-74
2021/12/29 03:15:05;;;;;;;14.50;8.70;;;1.90;99.90;1.80;95601.00;;;;5044668;28;20453;-73
2021/12/29 03:17:54;;;;;;;14.00;9.33;;;1.90;99.90;1.80;95588.00;;;;5047050;28;20435;-73
2021/12/29 03:20:43;;;;;;;9.57;6.93;;;1.90;99.90;1.80;95583.00;;;;5043408;28;20467;-76
2021/12/29 03:23:32;;;;;;;12.57;8.60;;;1.90;99.90;1.70;95579.00;;;;5042086;28;20427;-75
2021/12/29 03:26:21;;;;;;;11.30;8.10;;;1.80;99.90;1.80;95586.00;;;;5044503;28;20448;-76
2021/12/29 03:29:11;;;;;;;12.37;8.37;;;1.90;99.90;1.80;95582.00;;;;5044856;28;20788;-76
2021/12/29 03:32:06;;;;;;;8.80;6.80;;;1.90;99.90;1.80;95581.00;;;;5038908;28;20454;-74
2021/12/29 03:34:55;;;;;;;10.67;8.43;;;1.90;99.90;1.70;95587.00;;;;5037506;28;20438;-74
2021/12/29 03:37:44;;;;;;;11.47;8.73;;;1.80;99.90;1.50;95585.00;;;;5046845;28;20436;-76
2021/12/29 03:40:35;;;;;;;11.73;8.40;;;1.80;99.90;1.40;95594.00;;;;5045864;28;20952;-75
2021/12/29 03:43:25;;;;;;;11.07;7.43;;;1.70;99.90;1.40;95602.00;;;;5044710;28;20454;-76
2021/12/29 03:46:17;;;;;;;18.70;11.27;;;1.70;99.90;1.40;95600.00;;;;5044907;28;20431;-74
2021/12/29 03:49:06;;;;;;;15.10;10.40;;;1.70;99.90;1.40;95618.00;;;;5045865;28;20423;-76
2021/12/29 03:51:54;;;;;;;15.90;10.23;;;1.70;99.90;1.60;95613.00;;;;5046018;28;20998;-73
2021/12/29 03:54:43;;;;;;;10.23;7.87;;;1.70;99.90;1.60;95604.00;;;;5038997;28;20424;-75
2021/12/29 03:57:32;;;;;;;11.10;7.93;;;2.60;99.90;1.60;95624.00;;;;5045764;28;20442;-76
2021/12/29 04:00:24;;;;;;;13.83;8.30;;;1.70;99.90;1.50;95611.00;;;;5046518;28;20471;-74
2021/12/29 04:03:14;;;;;;;10.30;8.70;;;1.60;99.90;1.40;95623.00;;;;5043865;28;20430;-76
2021/12/29 04:06:05;;;;;;;13.50;9.40;;;1.70;99.90;1.40;95619.00;;;;5044496;28;20483;-74
2021/12/29 04:08:54;;;;;;;11.50;8.73;;;1.60;99.90;1.50;95619.00;;;;5045480;28;20442;-72
2021/12/29 04:11:49;;;;;;;9.17;6.77;;;1.70;99.90;1.50;95628.00;;;;5043727;28;20451;-74
2021/12/29 04:14:38;;;;;;;9.33;6.97;;;1.70;99.90;1.40;95634.00;;;;5044014;28;20431;-75
2021/12/29 04:17:36;;;;;;;9.70;7.00;;;1.70;99.90;1.50;95647.00;;;;5045589;28;20427;-75
2021/12/29 04:23:37;;;;;;;11.53;8.00;;;1.60;99.90;1.60;95638.00;;;;5040402;28;20945;-75
2021/12/29 04:26:25;;;;;;;8.97;5.90;;;1.70;99.90;1.60;95644.00;;;;5038793;28;20427;-75
2021/12/29 04:29:14;;;;;;;9.07;6.17;;;1.70;99.90;1.60;95650.00;;;;5043134;28;20829;-74
2021/12/29 04:32:04;;;;;;;11.97;7.53;;;1.70;99.90;1.40;95657.00;;;;5036787;28;20838;-75
2021/12/29 04:34:53;;;;;;;12.90;8.00;;;1.60;99.90;1.50;95657.00;;;;5045130;28;20432;-73
2021/12/29 04:37:43;;;;;;;6.87;5.90;;;1.70;99.90;1.50;95659.00;;;;5045610;28;20428;-75
2021/12/29 04:40:32;;;;;;;9.30;7.17;;;1.70;99.90;1.40;95666.00;;;;5043269;28;20536;-75
2021/12/29 04:43:22;;;;;;;9.67;7.03;;;1.70;99.90;1.50;95642.00;;;;5039638;28;20435;-75
2021/12/29 04:46:14;;;;;;;9.07;5.37;;;1.70;99.90;1.30;95659.00;;;;5044495;28;20957;-75
2021/12/29 04:49:04;;;;;;;9.03;5.73;;;1.60;99.90;1.30;95656.00;;;;5045711;28;20958;-73
2021/12/29 04:51:56;;;;;;;8.07;6.10;;;1.60;99.90;1.30;95654.00;;;;5040178;28;20444;-74
2021/12/29 04:54:47;;;;;;;8.77;6.03;;;1.60;99.90;1.30;95656.00;;;;5034413;28;20832;-74
2021/12/29 04:57:36;;;;;;;9.40;8.07;;;1.60;99.90;1.30;95641.00;;;;5045002;28;20447;-75
2021/12/29 05:00:28;;;;;;;8.80;7.70;;;1.60;99.90;1.40;95661.00;;;;5044235;28;20481;-72
2021/12/29 05:03:17;;;;;;;7.90;7.10;;;1.50;99.90;1.40;95662.00;;;;5043285;28;20435;-74
2021/12/29 05:09:13;;;;;;;8.17;6.57;;;1.60;99.90;1.10;95651.00;;;;5040222;28;20500;-75
2021/12/29 05:12:03;;;;;;;7.87;6.57;;;1.50;99.90;1.30;95673.00;;;;5038973;28;20463;-75
2021/12/29 05:14:52;;;;;;;8.27;6.37;;;1.50;99.90;1.20;95660.00;;;;5038279;28;20433;-75
2021/12/29 05:17:43;;;;;;;9.97;6.83;;;1.50;99.90;1.30;95663.00;;;;5044310;28;20535;-74
2021/12/29 05:20:32;;;;;;;9.60;6.07;;;2.40;99.90;1.40;95690.00;;;;5035546;28;20459;-73
2021/12/29 05:23:22;;;;;;;8.63;6.43;;;1.50;99.90;1.40;95667.00;;;;5043849;28;20432;-74
2021/12/29 05:26:11;;;;;;;7.73;6.00;;;1.50;99.90;1.30;95682.00;;;;5043518;28;20968;-74
2021/12/29 05:29:02;;;;;;;7.17;5.43;;;1.60;99.90;1.30;95677.00;;;;5043050;28;20962;-73
2021/12/29 05:31:51;;;;;;;6.47;4.73;;;1.60;99.90;1.30;95681.00;;;;5036938;28;20966;-75
2021/12/29 05:34:39;;;;;;;6.23;4.70;;;1.50;99.90;1.40;95667.00;;;;5033571;28;20440;-75
2021/12/29 05:37:28;;;;;;;6.63;5.40;;;1.50;99.90;1.30;95680.00;;;;5036011;28;20435;-74
2021/12/29 05:40:17;;;;;;;7.57;5.17;;;1.60;99.90;1.40;95692.00;;;;5026443;28;20514;-73
2021/12/29 05:43:06;;;;;;;9.67;7.17;;;1.60;99.90;1.50;95677.00;;;;5044085;28;20431;-75
2021/12/29 05:45:56;;;;;;;7.97;6.13;;;1.60;99.90;1.50;95681.00;;;;5042735;28;20432;-75
2021/12/29 05:48:47;;;;;;;7.33;5.40;;;1.60;99.90;1.30;95670.00;;;;5044884;28;20461;-75
2021/12/29 05:51:35;;;;;;;9.27;6.00;;;1.60;99.90;1.40;95684.00;;;;5033826;28;20455;-76
2021/12/29 05:54:24;;;;;;;9.23;6.90;;;1.60;99.90;1.40;95685.00;;;;5044415;28;20432;-73
2021/12/29 05:57:13;;;;;;;9.33;7.60;;;1.60;99.90;1.40;95682.00;;;;5042950;28;20423;-73
2021/12/29 06:00:03;;;;;;;6.57;4.97;;;1.60;99.90;1.30;95702.00;;;;5043398;28;20423;-74
2021/12/29 06:02:54;;;;;;;6.37;5.73;;;1.70;99.90;1.50;95702.00;;;;5038575;28;20457;-73
2021/12/29 06:05:43;;;;;;;7.20;6.27;;;1.60;99.90;1.50;95700.00;;;;5041517;28;20450;-74
2021/12/29 06:08:32;;;;;;;10.47;6.43;;;1.70;99.90;1.20;95699.00;;;;5024011;28;20427;-75
2021/12/29 06:11:21;;;;;;;5.60;4.27;;;1.70;99.90;1.20;95711.00;;;;5033757;28;20470;-75
2021/12/29 06:14:10;;;;;;;9.93;6.77;;;1.60;99.90;1.30;95702.00;;;;5030961;28;20834;-74
2021/12/29 06:16:59;;;;;;;10.67;5.20;;;0.50;99.90;1.30;95699.00;;;;5043504;28;20904;-74
2021/12/29 06:19:50;;;;;;;8.27;5.67;;;1.50;99.90;1.30;95726.00;;;;5042097;28;20474;-74
2021/12/29 06:22:39;;;;;;;6.50;4.57;;;1.50;99.90;1.40;95741.00;;;;5034966;28;20891;-75
2021/12/29 06:25:29;;;;;;;5.50;4.50;;;1.60;99.90;1.40;95723.00;;;;5034277;28;20426;-75
2021/12/29 06:28:18;;;;;;;7.67;5.50;;;1.50;99.90;1.50;95723.00;;;;5046250;28;20441;-74
2021/12/29 06:31:07;;;;;;;5.70;5.10;;;1.60;99.90;1.50;95729.00;;;;5045602;28;20958;-75
2021/12/29 06:33:56;;;;;;;5.90;4.57;;;1.60;99.90;1.50;95736.00;;;;5046721;28;20423;-75
2021/12/29 06:36:49;;;;;;;9.73;6.60;;;1.60;99.90;1.70;95748.00;;;;5046185;28;20424;-75
2021/12/29 06:39:39;;;;;;;9.27;5.83;;;1.80;99.90;1.40;95744.00;;;;5042682;28;20431;-75
2021/12/29 06:42:27;;;;;;;9.23;7.13;;;1.80;99.90;1.60;95745.00;;;;5041325;28;20481;-75
2021/12/29 06:45:16;;;;;;;6.63;5.07;;;1.80;99.90;1.50;95745.00;;;;5046250;28;20442;-75
2021/12/29 06:48:06;;;;;;;7.20;5.53;;;1.80;99.90;1.60;95746.00;;;;5046075;28;20493;-74
2021/12/29 06:50:55;;;;;;;6.17;5.47;;;1.80;99.90;1.40;95753.00;;;;5038352;28;20462;-76
2021/12/29 06:53:45;;;;;;;6.63;5.73;;;1.90;99.90;1.30;95759.00;;;;5042160;28;20446;-74
2021/12/29 06:56:34;;;;;;;9.97;7.80;;;1.90;99.90;1.60;95757.00;;;;5041134;28;20506;-75
2021/12/29 06:59:23;;;;;;;19.93;14.50;;;1.80;99.90;1.50;95765.00;;;;5039789;28;20420;-74
2021/12/29 07:02:14;;;;;;;11.73;10.17;;;1.80;99.90;1.40;95775.00;;;;5042707;28;20482;-75
2021/12/29 07:05:04;;;;;;;7.30;6.07;;;1.80;99.90;1.50;95776.00;;;;5043708;28;20419;-74
2021/12/29 07:07:54;;;;;;;4.73;4.33;;;1.70;99.90;1.40;95777.00;;;;5042051;28;20431;-74
2021/12/29 07:10:45;;;;;;;7.67;5.10;;;1.70;99.90;1.60;95770.00;;;;5043714;28;20419;-74
2021/12/29 07:13:34;;;;;;;5.03;4.53;;;1.70;99.90;1.60;95785.00;;;;5038945;28;20964;-74
2021/12/29 07:16:22;;;;;;;7.10;4.53;;;1.70;99.90;1.50;95781.00;;;;5046528;28;20431;-75
2021/12/29 07:19:12;;;;;;;5.83;5.23;;;1.70;99.90;1.50;95787.00;;;;5044996;28;20435;-74
2021/12/29 07:22:02;;;;;;;6.47;5.23;;;1.70;99.90;1.40;95781.00;;;;5045063;28;21092;-73
2021/12/29 07:24:51;;;;;;;8.23;5.97;;;1.80;99.90;1.60;95775.00;;;;5046175;28;20450;-73
2021/12/29 07:27:41;;;;;;;11.57;6.23;;;1.80;99.90;1.60;95779.00;;;;5045430;28;20427;-73
2021/12/29 07:30:30;;;;;;;8.83;7.07;;;1.80;99.90;1.70;95792.00;;;;5043627;28;20814;-75
2021/12/29 07:33:18;;;;;;;9.93;7.83;;;1.80;99.90;1.80;95778.00;;;;5045100;28;20454;-74
2021/12/29 07:36:07;;;;;;;11.67;7.03;;;1.90;99.90;1.80;95786.00;;;;5045724;28;20435;-74
2021/12/29 07:38:57;;;;;;;8.00;6.20;;;1.90;99.90;1.60;95786.00;;;;5045519;28;20427;-74
2021/12/29 07:41:47;;;;;;;7.80;6.57;;;1.90;99.90;1.40;95804.00;;;;5046149;28;20482;-73
2021/12/29 07:44:39;;;;;;;6.03;4.80;;;1.90;99.90;1.30;95786.00;;;;5043150;28;20450;-74
2021/12/29 07:47:28;;;;;;;3.90;2.87;;;1.80;99.90;1.10;95785.00;;;;5042675;28;20457;-73
2021/12/29 07:50:23;;;;;;;5.87;5.23;;;1.70;99.90;1.40;95810.00;;;;5040425;28;20683;-73
2021/12/29 07:53:20;;;;;;;8.50;5.37;;;1.70;99.90;1.90;95793.00;;;;5042408;28;20439;-74
2021/12/29 07:56:09;;;;;;;6.13;5.53;;;1.80;99.90;1.90;95796.00;;;;5042574;28;20424;-74
2021/12/29 07:58:58;;;;;;;6.33;5.17;;;2.00;99.90;2.00;95799.00;;;;5038965;28;20470;-72
2021/12/29 08:01:49;;;;;;;5.63;4.87;;;2.00;99.90;1.90;95799.00;;;;5023954;28;21625;-73
2021/12/29 08:04:40;;;;;;;7.27;5.23;;;2.20;99.90;1.50;95799.00;;;;5018993;28;21326;-77
2021/12/29 08:07:30;;;;;;;5.07;4.13;;;2.20;99.90;1.40;95807.00;;;;5016604;28;20516;-71
2021/12/29 08:10:19;;;;;;;5.37;4.43;;;2.10;99.90;1.50;95816.00;;;;5021690;28;21388;-74
2021/12/29 08:13:20;;;;;;;6.00;5.30;;;2.10;99.90;1.80;95808.00;;;;5018906;28;20441;-73
2021/12/29 08:16:09;;;;;;;7.10;5.50;;;2.10;99.90;2.00;95809.00;;;;5020648;28;21411;-73
2021/12/29 08:18:59;;;;;;;7.40;5.60;;;2.20;99.90;2.20;95823.00;;;;5003236;28;20500;-73
2021/12/29 08:21:48;;;;;;;5.30;4.03;;;2.30;99.90;2.30;95813.00;;;;5022665;28;20459;-73
2021/12/29 08:24:39;;;;;;;5.67;3.63;;;2.40;99.90;2.80;95820.00;;;;5010325;28;20443;-73
2021/12/29 08:27:28;;;;;;;9.77;7.47;;;2.50;99.90;2.90;95819.00;;;;5016782;28;20496;-72
2021/12/29 08:30:17;;;;;;;8.03;5.43;;;2.70;99.90;2.90;95817.00;;;;5000867;28;20490;-74
2021/12/29 08:33:06;;;;;;;5.97;5.17;;;2.90;99.90;3.00;95813.00;;;;5017008;28;20469;-74
2021/12/29 08:35:57;;;;;;;6.13;5.13;;;3.10;99.90;3.40;95820.00;;;;5018847;28;21226;-73
2021/12/29 08:38:46;;;;;;;8.30;5.93;;;3.20;99.90;3.60;95818.00;;;;5017292;28;20436;-74
2021/12/29 08:41:35;;;;;;;7.20;6.00;;;3.30;99.90;3.50;95833.00;;;;5001095;28;20501;-74
2021/12/29 08:44:24;;;;;;;5.70;5.10;;;3.40;99.90;3.20;95825.00;;;;5011662;28;20446;-74
2021/12/29 08:47:13;;;;;;;4.03;3.70;;;3.40;99.90;2.80;95825.00;;;;5009896;28;20448;-74
2021/12/29 08:50:03;;;;;;;6.87;4.63;;;3.30;99.90;2.70;95833.00;;;;5017462;28;20970;-74
2021/12/29 08:52:53;;;;;;;8.43;5.33;;;3.20;99.90;3.30;95841.00;;;;5016124;28;21914;-73
2021/12/29 08:55:46;;;;;;;6.23;5.23;;;3.20;99.90;3.10;95835.00;;;;5021390;28;20439;-73
2021/12/29 08:58:35;;;;;;;5.77;5.17;;;3.30;99.90;3.10;95844.00;;;;5016547;28;20773;-73
2021/12/29 09:01:26;;;;;;;5.30;4.80;;;3.30;99.90;3.10;95850.00;;;;5022446;28;20512;-74
2021/12/29 09:04:15;;;;;;;6.93;6.20;;;3.30;99.90;3.40;95853.00;;;;5013050;28;20463;-74
2021/12/29 09:07:05;;;;;;;8.27;6.90;;;3.40;99.90;3.60;95870.00;;;;5015717;28;20527;-74
2021/12/29 09:09:55;;;;;;;8.27;5.47;;;3.40;99.90;3.70;95857.00;;;;5009663;28;20512;-75
2021/12/29 09:12:47;;;;;;;6.57;5.87;;;3.50;99.90;3.80;95865.00;;;;5013597;28;20748;-75
2021/12/29 09:15:36;;;;;;;9.00;7.23;;;3.60;99.90;3.80;95857.00;;;;5017775;28;20256;-73
2021/12/29 09:18:25;;;;;;;7.17;5.20;;;3.70;99.90;4.00;95876.00;;;;5017650;28;20439;-75
2021/12/29 09:21:16;;;;;;;7.37;5.83;;;3.80;99.90;3.70;95864.00;;;;5017660;28;20228;-72
2021/12/29 09:24:06;;;;;;;7.43;5.83;;;3.80;99.90;3.90;95868.00;;;;5010784;28;22053;-74
2021/12/29 09:26:56;;;;;;;7.67;6.90;;;3.90;99.90;4.00;95863.00;;;;5014639;28;20205;-74
2021/12/29 09:29:46;;;;;;;11.40;10.13;;;3.90;99.90;3.80;95872.00;;;;5018061;28;20209;-74
2021/12/29 09:32:35;;;;;;;13.47;12.37;;;4.70;99.90;4.20;95857.00;;;;5009608;28;20220;-74
2021/12/29 09:35:25;;;;;;;6.90;6.17;;;4.00;99.90;4.10;95856.00;;;;5018387;28;20254;-73
2021/12/29 09:38:13;;;;;;;8.03;6.07;;;4.10;99.90;4.10;95862.00;;;;5016903;28;20692;-74
2021/12/29 09:41:04;;;;;;;7.37;6.00;;;4.20;99.90;4.60;95855.00;;;;5016231;28;20289;-72
2021/12/29 09:43:54;;;;;;;7.47;6.23;;;4.30;99.90;4.60;95856.00;;;;5015615;28;20232;-73
2021/12/29 09:46:43;;;;;;;10.53;7.03;;;4.40;99.90;4.80;95849.00;;;;5020218;28;20208;-73
2021/12/29 09:49:37;;;;;;;6.00;5.50;;;4.80;99.90;4.40;95849.00;;;;5019753;28;20213;-74
2021/12/29 09:52:29;;;;;;;6.47;5.07;;;4.60;99.90;4.00;95843.00;;;;5011923;28;20471;-74
2021/12/29 09:55:21;;;;;;;7.67;5.63;;;4.50;99.90;4.10;95836.00;;;;5034657;28;20797;-74
2021/12/29 09:58:10;;;;;;;6.73;5.03;;;4.40;99.90;4.00;95851.00;;;;5019397;28;20205;-74
2021/12/29 10:01:04;;;;;;;7.47;6.77;;;4.40;99.90;4.30;95853.00;;;;5032792;28;20899;-74
2021/12/29 10:03:53;;;;;;;7.83;6.53;;;4.40;99.90;4.70;95872.00;;;;5043399;28;20766;-74
2021/12/29 10:06:43;;;;;;;6.07;5.47;;;4.50;99.90;4.90;95859.00;;;;5033491;28;20695;-72
2021/12/29 10:09:34;;;;;;;8.70;6.20;;;4.60;99.90;5.10;95873.00;;;;5017304;28;20209;-75
2021/12/29 10:12:23;;;;;;;5.73;4.47;;;4.70;99.90;4.90;95866.00;;;;5041881;28;20235;-75
2021/12/29 10:15:12;;;;;;;5.60;4.40;;;5.50;99.90;5.50;95853.00;;;;5032264;28;20790;-74
2021/12/29 10:18:06;;;;;;;9.67;5.50;;;5.00;99.90;5.90;95854.00;;;;5025327;28;20200;-74
2021/12/29 10:20:58;;;;;;;6.03;5.03;;;5.30;99.90;5.70;95860.00;;;;5037985;28;20232;-75
2021/12/29 10:23:49;;;;;;;5.50;5.00;;;5.50;99.90;5.40;95853.00;;;;5044829;28;20246;-75
2021/12/29 10:26:58;;;;;;;5.97;4.40;;;5.60;99.90;5.60;95861.00;;;;5043465;28;20200;-75
2021/12/29 10:29:47;;;;;;;4.97;4.47;;;5.70;99.90;5.80;95867.00;;;;5030455;28;20285;-73
2021/12/29 10:32:36;;;;;;;8.17;4.73;;;5.90;99.90;6.30;95859.00;;;;5034913;28;20236;-72
2021/12/29 10:35:28;;;;;;;23.60;14.27;;;6.10;99.90;6.80;95876.00;;;;5033768;28;20571;-73
2021/12/29 10:38:21;;;;;;;10.63;7.30;;;6.50;99.90;6.90;95874.00;;;;5035519;28;20209;-75
2021/12/29 10:41:10;;;;;;;16.30;8.90;;;6.80;99.90;6.80;95866.00;;;;5032272;28;20277;-77
2021/12/29 10:44:04;;;;;;;16.30;8.87;;;6.90;99.90;7.10;95853.00;;;;5036677;28;20224;-75
2021/12/29 10:46:56;;;;;;;6.40;5.73;;;7.00;99.90;7.90;95865.00;;;;5034504;28;20436;-73
2021/12/29 10:49:54;;;;;;;9.03;7.03;;;7.40;99.90;8.00;95860.00;;;;5035248;28;20209;-73
2021/12/29 10:52:47;;;;;;;7.10;4.77;;;8.00;99.90;7.50;95854.00;;;;5035969;28;20232;-74
2021/12/29 10:55:36;;;;;;;8.73;4.57;;;8.30;99.90;8.90;95843.00;;;;5029528;28;20213;-75
2021/12/29 10:58:29;;;;;;;6.53;3.93;;;8.60;99.90;8.30;95860.00;;;;5032211;28;20239;-74
2021/12/29 11:01:18;;;;;;;6.90;3.43;;;9.00;99.90;7.80;95841.00;;;;5038247;28;20699;-74
2021/12/29 11:04:08;;;;;;;6.40;4.10;;;8.90;99.90;8.00;95859.00;;;;5028936;28;20405;-74
2021/12/29 11:07:01;;;;;;;5.43;3.50;;;9.00;99.90;8.50;95843.00;;;;5032440;28;20204;-74
2021/12/29 11:09:51;;;;;;;5.17;3.97;;;9.00;99.90;9.80;95851.00;;;;5031673;28;20668;-74
2021/12/29 11:12:49;;;;;;;4.13;3.27;;;9.40;99.90;10.00;95853.00;;;;5035302;28;20236;-74
2021/12/29 11:15:43;;;;;;;5.90;3.93;;;10.00;99.90;9.10;95842.00;;;;5038030;28;20217;-73
2021/12/29 11:18:44;;;;;;;5.43;3.00;;;10.20;99.90;10.00;95856.00;;;;5035023;28;20499;-75
2021/12/29 11:21:37;;;;;;;3.47;2.80;;;10.40;99.90;10.40;95864.00;;;;5028463;28;20240;-73
2021/12/29 11:24:29;;;;;;;4.07;2.53;;;10.70;99.90;11.10;95875.00;;;;5032757;28;20589;-73
2021/12/29 11:27:20;;;;;;;5.60;3.00;;;11.20;99.90;10.60;95861.00;;;;5029428;28;20292;-73
2021/12/29 11:30:12;;;;;;;6.17;4.70;;;11.70;99.90;10.90;95870.00;;;;5033351;28;20201;-73
2021/12/29 11:33:08;;;;;;;3.00;2.73;;;11.80;99.90;11.90;95889.00;;;;5037132;28;20529;-73
2021/12/29 11:35:57;;;;;;;3.60;3.30;;;12.00;99.90;10.10;95876.00;;;;5035389;28;20211;-72
2021/12/29 11:38:47;;;;;;;4.50;4.10;;;12.20;99.90;9.20;95846.00;;;;5032030;28;20693;-73
2021/12/29 11:41:36;;;;;;;4.17;2.90;;;11.30;99.90;8.80;95845.00;;;;5026174;28;20274;-73
2021/12/29 11:44:27;;;;;;;3.90;3.50;;;10.70;99.90;9.00;95856.00;;;;5023520;28;21264;-73
2021/12/29 11:47:16;;;;;;;4.33;2.97;;;10.20;99.90;10.40;95870.00;;;;5027393;28;20201;-74
2021/12/29 11:50:07;;;;;;;3.07;2.83;;;10.20;99.90;10.40;95848.00;;;;5034394;28;20220;-73
2021/12/29 11:53:09;;;;;;;5.07;2.90;;;10.60;99.90;10.40;95854.00;;;;5028417;28;20240;-73
2021/12/29 11:56:01;;;;;;;2.60;2.40;;;11.30;99.90;10.70;95854.00;;;;5026760;28;20204;-73
2021/12/29 11:58:52;;;;;;;3.80;3.30;;;11.60;99.90;12.00;95851.00;;;;5021123;28;20197;-72
2021/12/29 12:01:42;;;;;;;2.37;2.10;;;12.00;99.90;11.20;95846.00;;;;5030226;28;20679;-73
2021/12/29 12:04:31;;;;;;;2.77;2.57;;;12.60;99.90;10.70;95846.00;;;;5029377;28;20231;-72
2021/12/29 12:07:24;;;;;;;2.93;2.73;;;12.50;99.90;11.90;95848.00;;;;5034301;28;20708;-74
2021/12/29 12:10:26;;;;;;;4.20;3.80;;;12.30;99.90;12.90;95873.00;;;;5029183;28;20684;-73
2021/12/29 12:13:26;;;;;;;3.23;2.30;;;12.80;99.90;11.10;95841.00;;;;5029504;28;20212;-74
2021/12/29 12:16:15;;;;;;;2.97;1.77;;;13.40;99.90;12.00;95852.00;;;;5028568;28;20208;-73
2021/12/29 12:19:06;;;;;;;5.43;2.77;;;13.20;99.90;13.10;95866.00;;;;5027180;28;20220;-74
2021/12/29 12:22:08;;;;;;;2.23;2.03;;;13.40;99.90;12.40;95856.00;;;;5026545;28;20229;-74
2021/12/29 12:25:05;;;;;;;2.70;2.23;;;13.80;99.90;12.80;95860.00;;;;5035671;28;20733;-74
2021/12/29 12:28:00;;;;;;;2.00;1.80;;;14.40;99.90;12.10;95855.00;;;;5024712;28;20208;-73
2021/12/29 12:30:55;;;;;;;1.50;1.40;;;14.30;99.90;13.20;95852.00;;;;5032278;28;20579;-74
2021/12/29 12:33:43;;;;;;;2.00;1.47;;;14.70;99.90;11.20;95850.00;;;;5030721;28;20258;-74
2021/12/29 12:36:34;;;;;;;2.47;1.83;;;14.20;99.90;12.70;95855.00;;;;5031931;28;20254;-74
2021/12/29 12:39:24;;;;;;;3.43;1.83;;;13.80;99.90;14.90;95873.00;;;;5025227;28;20206;-74
2021/12/29 12:42:18;;;;;;;2.30;1.40;;;14.30;99.90;12.00;95854.00;;;;5031987;28;20692;-73
2021/12/29 12:45:20;;;;;;;1.70;1.53;;;14.60;99.90;11.30;95844.00;;;;5026891;28;20320;-74
2021/12/29 12:48:12;;;;;;;0.87;0.87;;;14.20;99.90;9.80;95832.00;;;;5039466;28;20694;-74
2021/12/29 12:51:16;;;;;;;0.80;0.80;;;12.70;99.90;11.70;95858.00;;;;5033838;28;20221;-76
2021/12/29 12:54:19;;;;;;;3.60;1.43;;;12.20;99.90;10.70;95846.00;;;;5030321;28;20223;-73
2021/12/29 12:57:07;;;;;;;2.23;2.03;;;12.20;99.90;11.60;95855.00;;;;5036226;28;20243;-73